Badan Meteorologi, Klimatologi, dan Geofisika

CUACA TERKINI BANDARA KUALANAMU

Selasa, 18 September 2018 18:09 UTC

Cuaca : Udara kabur

Angin : Tenang

Jarak Pandang : 5.0 km

Suhu : 25 °C

Waktu Pengamatan : 01:30 WIB

Selengkapnya>>>

DATA METEOROLOGI KUALANAMU

Data Metar Terbaru

WIMM 181600Z 16003KT 9999 SCT017 26/24 Q1010 NOSIG=

TAF WIMM 181700Z 1818/1918 16005KT 4000 HZ FEW016CB SCT018 BECMG 1904/1906 08010KT 9000 NSW BECMG 1911/1913 14005KT 4000 HZ =

Selengkapnya>>>

Data TAF Terbaru

TAF WIMM 181700Z 1818/1918 16005KT 4000 HZ FEW016CB SCT018 BECMG 1904/1906 08010KT 9000 NSW BECMG 1911/1913 14005KT 4000 HZ =

Selengkapnya>>>

CITRA SATELIT

Enhanced
Citra Satelit
Cloud Type
Citra Satelit IR
Hotspot
Citra Satelit
Sebaran Asap
Citra Satelit